Time;durP1;ratioP1;P1;durP2;ratioP2;P2;SDS_P1;SDS_P2;PMS_P1;PMS_P2;Temp;Humidity;BMP_temperature;BMP_pressure;BME280_temperature;BME280_humidity;BME280_pressure;Samples;Min_cycle;Max_cycle;Signal;HPM_P1;HPM_P2
2022/09/27 00:00:07;;;;;;;2.40;0.85;;;;;;;;;;4936412;29;20062;-74
2022/09/27 00:02:33;;;;;;;0.77;0.60;;;;;;;;;;4920981;29;20078;-74
2022/09/27 00:05:00;;;;;;;0.63;0.60;;;;;;;;;;4952346;29;20185;-74
2022/09/27 00:07:27;;;;;;;1.30;0.82;;;;;;;;;;4936335;29;20054;-74
2022/09/27 00:09:54;;;;;;;1.35;0.82;;;;;;;;;;4953850;28;20043;-74
2022/09/27 00:12:20;;;;;;;3.10;0.90;;;;;;;;;;4939947;29;20059;-74
2022/09/27 00:14:47;;;;;;;1.98;0.90;;;;;;;;;;4938898;29;20086;-76
2022/09/27 00:17:14;;;;;;;3.25;0.77;;;;;;;;;;4939799;29;20066;-74
2022/09/27 00:19:40;;;;;;;1.00;0.80;;;;;;;;;;4937138;29;20499;-74
2022/09/27 00:22:07;;;;;;;0.75;0.60;;;;;;;;;;4939651;29;20047;-72
2022/09/27 00:24:34;;;;;;;0.80;0.60;;;;;;;;;;4939723;29;20496;-73
2022/09/27 00:27:01;;;;;;;0.82;0.50;;;;;;;;;;4939810;29;20055;-73
2022/09/27 00:29:27;;;;;;;1.23;0.70;;;;;;;;;;4940128;29;20069;-72
2022/09/27 00:31:54;;;;;;;0.93;0.60;;;;;;;;;;4939761;29;20054;-73
2022/09/27 00:34:22;;;;;;;0.82;0.82;;;;;;;;;;4939577;29;20054;-73
2022/09/27 00:36:50;;;;;;;0.57;0.52;;;;;;;;;;4914642;29;20115;-73
2022/09/27 00:39:17;;;;;;;2.03;0.60;;;;;;;;;;4933986;29;20047;-73
2022/09/27 00:41:44;;;;;;;1.58;0.60;;;;;;;;;;4948420;29;20496;-73
2022/09/27 00:44:27;;;;;;;0.88;0.57;;;;;;;;;;4934413;29;20055;-73
2022/09/27 00:47:29;;;;;;;0.93;0.60;;;;;;;;;;4940931;29;20081;-74
2022/09/27 00:50:13;;;;;;;1.45;0.60;;;;;;;;;;4937470;29;20388;-74
2022/09/27 00:52:47;;;;;;;3.33;0.60;;;;;;;;;;4955461;29;20404;-74
2022/09/27 00:55:19;;;;;;;0.77;0.40;;;;;;;;;;4923920;29;20047;-74
2022/09/27 00:57:46;;;;;;;0.80;0.50;;;;;;;;;;4923628;29;20157;-72
2022/09/27 01:00:14;;;;;;;0.55;0.55;;;;;;;;;;4939032;29;20048;-74
2022/09/27 01:02:46;;;;;;;0.55;0.50;;;;;;;;;;4938880;29;20138;-73
2022/09/27 01:05:15;;;;;;;1.65;0.70;;;;;;;;;;4931908;29;20106;-74
2022/09/27 01:07:41;;;;;;;0.75;0.52;;;;;;;;;;4956215;29;20063;-74
2022/09/27 01:10:08;;;;;;;1.15;0.57;;;;;;;;;;4938631;29;20047;-74
2022/09/27 01:12:38;;;;;;;1.27;0.60;;;;;;;;;;4939263;29;20107;-73
2022/09/27 01:15:25;;;;;;;1.13;0.70;;;;;;;;;;4954822;29;20051;-73
2022/09/27 01:18:10;;;;;;;0.40;0.40;;;;;;;;;;4955381;29;20070;-73
2022/09/27 01:20:54;;;;;;;0.73;0.70;;;;;;;;;;4938785;29;20420;-73
2022/09/27 01:23:30;;;;;;;0.60;0.50;;;;;;;;;;4936953;29;20058;-73
2022/09/27 01:26:34;;;;;;;0.95;0.70;;;;;;;;;;4959269;29;20047;-74
2022/09/27 01:29:26;;;;;;;0.75;0.60;;;;;;;;;;4954514;29;20143;-73
2022/09/27 01:32:06;;;;;;;0.40;0.40;;;;;;;;;;4938685;29;20043;-73
2022/09/27 01:34:51;;;;;;;0.75;0.50;;;;;;;;;;4954647;29;20055;-75
2022/09/27 01:37:47;;;;;;;1.45;0.60;;;;;;;;;;4954494;29;20428;-76
2022/09/27 01:40:39;;;;;;;0.40;0.40;;;;;;;;;;4954545;29;20055;-75
2022/09/27 01:43:11;;;;;;;0.88;0.60;;;;;;;;;;4938598;29;20063;-74
2022/09/27 01:45:43;;;;;;;1.20;0.60;;;;;;;;;;4938713;29;20055;-75
2022/09/27 01:48:13;;;;;;;2.03;0.50;;;;;;;;;;4920060;29;20327;-74
2022/09/27 01:50:45;;;;;;;0.93;0.65;;;;;;;;;;4938129;29;20570;-75
2022/09/27 01:53:28;;;;;;;1.63;0.55;;;;;;;;;;4938311;29;20074;-75
2022/09/27 01:55:55;;;;;;;1.67;0.77;;;;;;;;;;4934979;29;20062;-75
2022/09/27 01:58:28;;;;;;;1.02;0.73;;;;;;;;;;4934931;29;20059;-75
2022/09/27 02:00:55;;;;;;;1.42;0.52;;;;;;;;;;4922533;29;20114;-74
2022/09/27 02:03:43;;;;;;;1.45;0.40;;;;;;;;;;4953988;29;20484;-74
2022/09/27 02:06:12;;;;;;;1.02;0.70;;;;;;;;;;4922565;29;20055;-74
2022/09/27 02:08:57;;;;;;;1.25;0.40;;;;;;;;;;4937490;29;20515;-73
2022/09/27 02:11:24;;;;;;;0.55;0.55;;;;;;;;;;4937965;29;20479;-73
2022/09/27 02:14:28;;;;;;;1.20;0.40;;;;;;;;;;4937577;29;20427;-73
2022/09/27 02:17:20;;;;;;;2.40;0.50;;;;;;;;;;4878858;29;20062;-73
2022/09/27 02:20:13;;;;;;;0.68;0.43;;;;;;;;;;4931079;29;20051;-74
2022/09/27 02:23:17;;;;;;;2.20;0.60;;;;;;;;;;4921637;29;20070;-74
2022/09/27 02:25:54;;;;;;;;;;;;;;;;;;4954022;29;20047;-74
2022/09/27 02:28:46;;;;;;;0.85;0.40;;;;;;;;;;4950081;28;19928;-73
2022/09/27 02:31:12;;;;;;;1.45;0.65;;;;;;;;;;4934431;29;20056;-73
2022/09/27 02:33:47;;;;;;;0.85;0.40;;;;;;;;;;4919286;29;20058;-74
2022/09/27 02:36:14;;;;;;;0.52;0.40;;;;;;;;;;4907713;29;20077;-74
2022/09/27 02:38:42;;;;;;;1.67;0.57;;;;;;;;;;4921299;29;20073;-74
2022/09/27 02:41:16;;;;;;;0.40;0.40;;;;;;;;;;4937059;29;20519;-74
2022/09/27 02:43:44;;;;;;;1.40;0.63;;;;;;;;;;4937790;29;20059;-74
2022/09/27 02:46:33;;;;;;;0.95;0.57;;;;;;;;;;4937500;29;20075;-74
2022/09/27 02:49:02;;;;;;;1.73;0.50;;;;;;;;;;4954307;29;20447;-74
2022/09/27 02:51:59;;;;;;;0.50;0.30;;;;;;;;;;4953210;29;20435;-74
2022/09/27 02:55:08;;;;;;;0.75;0.50;;;;;;;;;;4933254;29;20059;-74
2022/09/27 02:57:34;;;;;;;1.90;0.40;;;;;;;;;;4937080;29;20059;-74
2022/09/27 03:00:09;;;;;;;1.95;0.40;;;;;;;;;;4937382;29;20051;-73
2022/09/27 03:03:18;;;;;;;0.68;0.30;;;;;;;;;;4937074;29;20047;-74
2022/09/27 03:05:53;;;;;;;2.63;0.60;;;;;;;;;;4937192;29;20139;-73
2022/09/27 03:08:20;;;;;;;2.05;0.50;;;;;;;;;;4937261;29;20463;-74
2022/09/27 03:10:47;;;;;;;1.08;0.65;;;;;;;;;;4921518;29;20102;-75
2022/09/27 03:13:14;;;;;;;2.13;1.02;;;;;;;;;;4936178;29;20059;-75
2022/09/27 03:15:40;;;;;;;0.50;0.50;;;;;;;;;;4928754;29;20418;-74
2022/09/27 03:18:07;;;;;;;2.92;0.65;;;;;;;;;;4936637;29;20066;-75
2022/09/27 03:20:34;;;;;;;1.38;0.55;;;;;;;;;;4953189;29;20051;-74
2022/09/27 03:23:00;;;;;;;1.27;0.40;;;;;;;;;;4937582;29;20559;-73
2022/09/27 03:25:27;;;;;;;1.70;0.70;;;;;;;;;;4936995;29;20110;-73
2022/09/27 03:27:54;;;;;;;3.00;0.85;;;;;;;;;;4936522;29;20055;-72
2022/09/27 03:30:21;;;;;;;2.17;0.50;;;;;;;;;;4936997;29;20059;-73
2022/09/27 03:32:47;;;;;;;1.48;0.40;;;;;;;;;;4943137;29;20062;-73
2022/09/27 03:35:14;;;;;;;2.53;0.63;;;;;;;;;;4954320;29;20046;-72
2022/09/27 03:37:41;;;;;;;3.08;0.77;;;;;;;;;;4944247;29;20063;-73
2022/09/27 03:40:08;;;;;;;2.05;0.80;;;;;;;;;;4929570;29;20047;-75
2022/09/27 03:42:35;;;;;;;2.67;0.75;;;;;;;;;;4918199;29;20047;-74
2022/09/27 03:45:02;;;;;;;2.33;0.95;;;;;;;;;;4920342;29;20071;-75
2022/09/27 03:47:28;;;;;;;1.70;0.65;;;;;;;;;;4939215;29;20059;-75
2022/09/27 03:49:55;;;;;;;2.92;0.75;;;;;;;;;;4921789;29;20416;-75
2022/09/27 03:52:22;;;;;;;2.60;0.80;;;;;;;;;;4922053;29;20052;-75
2022/09/27 03:54:48;;;;;;;3.70;1.83;;;;;;;;;;4906355;29;20051;-74
2022/09/27 03:57:15;;;;;;;2.17;0.70;;;;;;;;;;4932074;29;20066;-75
2022/09/27 03:59:42;;;;;;;1.42;0.80;;;;;;;;;;4940875;29;20051;-75
2022/09/27 04:02:08;;;;;;;3.67;1.20;;;;;;;;;;4957600;29;20047;-75
2022/09/27 04:04:35;;;;;;;2.85;1.10;;;;;;;;;;4941718;29;20126;-78
2022/09/27 04:07:02;;;;;;;2.88;1.45;;;;;;;;;;4909643;29;20063;-79
2022/09/27 04:09:28;;;;;;;2.70;1.10;;;;;;;;;;4956512;29;20122;-76
2022/09/27 04:11:55;;;;;;;3.45;0.80;;;;;;;;;;4934288;28;20503;-75
2022/09/27 04:14:22;;;;;;;4.35;1.20;;;;;;;;;;4924308;29;20428;-76
2022/09/27 04:16:48;;;;;;;2.72;1.25;;;;;;;;;;4906504;29;20055;-77
2022/09/27 04:19:15;;;;;;;2.08;1.20;;;;;;;;;;4921739;29;20052;-76
2022/09/27 04:21:42;;;;;;;3.13;1.05;;;;;;;;;;4929170;28;20105;-77
2022/09/27 04:24:10;;;;;;;5.35;1.40;;;;;;;;;;4923002;28;20063;-76
2022/09/27 04:26:38;;;;;;;5.10;1.10;;;;;;;;;;4966173;28;20130;-76
2022/09/27 04:29:08;;;;;;;6.78;1.65;;;;;;;;;;4928684;28;20118;-77
2022/09/27 04:31:36;;;;;;;4.80;1.13;;;;;;;;;;4920194;29;20051;-77
2022/09/27 04:34:04;;;;;;;6.72;1.45;;;;;;;;;;4941523;29;20055;-75
2022/09/27 04:36:31;;;;;;;4.70;1.25;;;;;;;;;;4955978;29;20064;-75
2022/09/27 04:38:59;;;;;;;2.00;1.25;;;;;;;;;;4932492;29;20522;-74
2022/09/27 04:41:27;;;;;;;4.63;1.13;;;;;;;;;;4908946;29;20055;-74
2022/09/27 04:43:55;;;;;;;5.35;1.45;;;;;;;;;;4924359;29;20074;-74
2022/09/27 04:46:24;;;;;;;4.22;1.30;;;;;;;;;;4910179;29;20051;-74
2022/09/27 04:48:51;;;;;;;4.40;1.60;;;;;;;;;;4956445;29;20079;-77
2022/09/27 04:51:18;;;;;;;7.63;2.10;;;;;;;;;;4931172;28;20055;-75
2022/09/27 04:53:46;;;;;;;5.43;1.17;;;;;;;;;;4958811;28;20102;-76
2022/09/27 04:56:13;;;;;;;3.15;1.65;;;;;;;;;;4946366;28;20113;-75
2022/09/27 04:58:39;;;;;;;6.35;1.73;;;;;;;;;;4942762;28;20422;-74
2022/09/27 05:01:08;;;;;;;5.05;1.45;;;;;;;;;;4975027;28;20061;-74
2022/09/27 05:03:35;;;;;;;2.95;1.40;;;;;;;;;;4959344;28;20109;-75
2022/09/27 05:06:02;;;;;;;9.52;2.70;;;;;;;;;;4967444;28;20651;-75
2022/09/27 05:08:29;;;;;;;4.88;1.70;;;;;;;;;;4951587;28;20047;-75
2022/09/27 05:10:55;;;;;;;6.38;1.48;;;;;;;;;;4931591;28;20043;-74
2022/09/27 05:13:22;;;;;;;2.80;1.30;;;;;;;;;;4943790;29;20229;-75
2022/09/27 05:15:49;;;;;;;2.63;1.20;;;;;;;;;;4938991;29;20059;-74
2022/09/27 05:18:16;;;;;;;4.03;1.40;;;;;;;;;;4938857;29;20047;-75
2022/09/27 05:20:43;;;;;;;4.28;1.40;;;;;;;;;;4939299;29;20058;-75
2022/09/27 05:23:11;;;;;;;2.67;1.17;;;;;;;;;;4939755;29;20063;-75
2022/09/27 05:25:38;;;;;;;7.35;1.35;;;;;;;;;;4940300;29;20059;-75
2022/09/27 05:28:05;;;;;;;3.00;1.48;;;;;;;;;;4924944;29;20059;-76
2022/09/27 05:30:31;;;;;;;4.25;1.50;;;;;;;;;;4958982;29;20050;-78
2022/09/27 05:32:58;;;;;;;4.13;1.50;;;;;;;;;;4943886;29;20503;-79
2022/09/27 05:35:26;;;;;;;5.05;2.13;;;;;;;;;;4948011;29;20061;-79
2022/09/27 05:37:59;;;;;;;6.70;1.60;;;;;;;;;;4942887;29;20102;-79
2022/09/27 05:40:26;;;;;;;3.83;1.35;;;;;;;;;;4924295;29;20143;-79
2022/09/27 05:43:08;;;;;;;8.27;1.83;;;;;;;;;;4943573;29;20144;-77
2022/09/27 05:45:35;;;;;;;2.58;1.25;;;;;;;;;;4910564;29;20051;-80
2022/09/27 05:48:02;;;;;;;4.20;1.75;;;;;;;;;;4941405;29;20063;-81
2022/09/27 05:50:29;;;;;;;5.65;1.58;;;;;;;;;;4945535;29;20061;-79
2022/09/27 05:52:56;;;;;;;3.72;1.60;;;;;;;;;;4959911;29;20065;-78
2022/09/27 05:55:23;;;;;;;4.53;1.48;;;;;;;;;;4963185;28;20090;-80
2022/09/27 05:58:00;;;;;;;3.63;2.00;;;;;;;;;;4955580;29;20043;-80
2022/09/27 06:00:27;;;;;;;2.47;1.40;;;;;;;;;;4912640;29;20564;-77
2022/09/27 06:02:59;;;;;;;3.53;1.42;;;;;;;;;;4936923;29;20047;-74
2022/09/27 06:05:27;;;;;;;2.50;1.60;;;;;;;;;;4918948;29;20052;-72
2022/09/27 06:08:03;;;;;;;5.28;1.10;;;;;;;;;;4926324;29;20405;-77
2022/09/27 06:10:30;;;;;;;2.95;1.23;;;;;;;;;;4951618;29;20055;-82
2022/09/27 06:13:01;;;;;;;4.63;1.27;;;;;;;;;;4945405;29;20039;-81
2022/09/27 06:15:28;;;;;;;2.00;1.13;;;;;;;;;;4975886;28;20051;-81
2022/09/27 06:17:55;;;;;;;4.13;1.10;;;;;;;;;;4974008;28;20045;-80
2022/09/27 06:20:22;;;;;;;2.05;1.00;;;;;;;;;;4945863;29;20035;-83
2022/09/27 06:22:49;;;;;;;3.72;1.17;;;;;;;;;;4946565;29;20039;-82
2022/09/27 06:25:15;;;;;;;4.25;1.75;;;;;;;;;;4961809;28;20031;-83
2022/09/27 06:27:42;;;;;;;5.38;1.95;;;;;;;;;;4956649;29;20102;-78
2022/09/27 06:30:11;;;;;;;4.15;1.80;;;;;;;;;;4923566;29;20488;-78
2022/09/27 06:32:43;;;;;;;3.28;2.00;;;;;;;;;;4953888;29;20055;-78
2022/09/27 06:35:10;;;;;;;3.42;1.48;;;;;;;;;;4953324;29;20059;-78
2022/09/27 06:37:36;;;;;;;4.53;1.77;;;;;;;;;;4935557;29;20093;-81
2022/09/27 06:40:04;;;;;;;1.60;0.93;;;;;;;;;;4934099;29;20127;-79
2022/09/27 06:42:30;;;;;;;2.65;1.20;;;;;;;;;;4934609;29;20060;-76
2022/09/27 06:44:57;;;;;;;3.97;1.10;;;;;;;;;;4934748;29;20047;-77
2022/09/27 06:47:24;;;;;;;4.65;1.38;;;;;;;;;;4918836;29;20059;-79
2022/09/27 06:49:50;;;;;;;1.23;1.02;;;;;;;;;;4933700;29;20055;-79
2022/09/27 06:52:17;;;;;;;3.20;1.10;;;;;;;;;;4975895;23;20055;-65
2022/09/27 06:54:44;;;;;;;3.72;1.08;;;;;;;;;;4952431;29;20047;-64
2022/09/27 07:00:22;;;;;;;3.17;1.38;;;;;;;;;;4952624;29;20089;-65
2022/09/27 07:02:42;;;;;;;1.75;0.70;;;;;;;;;;4932639;29;20051;-64
2022/09/27 07:05:09;;;;;;;1.90;0.90;;;;;;;;;;4932097;29;20491;-65
2022/09/27 07:07:36;;;;;;;1.55;0.80;;;;;;;;;;4934507;29;20107;-65
2022/09/27 07:10:02;;;;;;;1.48;0.73;;;;;;;;;;4943806;29;20086;-72
2022/09/27 07:12:36;;;;;;;0.63;0.50;;;;;;;;;;4952775;28;20519;-71
2022/09/27 07:15:03;;;;;;;0.50;0.35;;;;;;;;;;4952419;28;20097;-70
2022/09/27 07:17:30;;;;;;;1.40;0.60;;;;;;;;;;4952139;28;20055;-70
2022/09/27 07:19:56;;;;;;;1.13;0.40;;;;;;;;;;4934430;29;20570;-73
2022/09/27 07:22:23;;;;;;;1.55;0.80;;;;;;;;;;4934710;28;20047;-68
2022/09/27 07:24:50;;;;;;;1.88;1.08;;;;;;;;;;4941402;29;20141;-66
2022/09/27 07:27:17;;;;;;;1.48;0.60;;;;;;;;;;4941435;28;20063;-67
2022/09/27 07:29:43;;;;;;;0.30;0.30;;;;;;;;;;4946496;28;20056;-68
2022/09/27 07:32:10;;;;;;;0.73;0.68;;;;;;;;;;4945407;29;20051;-63
2022/09/27 07:34:37;;;;;;;0.65;0.50;;;;;;;;;;4933792;29;20055;-64
2022/09/27 07:37:04;;;;;;;1.02;0.52;;;;;;;;;;4935038;29;20085;-63
2022/09/27 07:39:31;;;;;;;0.85;0.50;;;;;;;;;;4940138;29;20083;-63
2022/09/27 07:41:57;;;;;;;0.88;0.60;;;;;;;;;;4942432;29;20047;-66
2022/09/27 07:44:25;;;;;;;0.85;0.50;;;;;;;;;;4933654;29;20063;-65
2022/09/27 07:46:51;;;;;;;1.45;0.60;;;;;;;;;;4942557;29;20498;-64
2022/09/27 07:49:18;;;;;;;0.30;0.30;;;;;;;;;;4939490;29;20090;-64
2022/09/27 07:51:45;;;;;;;0.52;0.40;;;;;;;;;;4939232;29;20082;-64
2022/09/27 07:54:11;;;;;;;0.35;0.35;;;;;;;;;;4942626;29;20075;-64
2022/09/27 07:56:38;;;;;;;0.63;0.40;;;;;;;;;;4942113;29;20094;-63
2022/09/27 07:59:04;;;;;;;1.08;0.55;;;;;;;;;;4936425;29;20055;-65
2022/09/27 08:01:33;;;;;;;2.38;1.02;;;;;;;;;;4942666;29;20040;-64
2022/09/27 08:04:00;;;;;;;1.08;0.50;;;;;;;;;;4947807;28;20525;-63
2022/09/27 08:06:27;;;;;;;0.65;0.60;;;;;;;;;;4945245;29;20051;-64
2022/09/27 08:08:53;;;;;;;1.25;0.77;;;;;;;;;;4935977;29;20098;-64
2022/09/27 08:11:20;;;;;;;1.42;0.70;;;;;;;;;;4936447;29;20051;-63
2022/09/27 08:13:48;;;;;;;0.80;0.80;;;;;;;;;;4937358;29;20207;-64
2022/09/27 08:16:15;;;;;;;1.20;0.90;;;;;;;;;;4936170;29;20162;-64
2022/09/27 08:18:42;;;;;;;1.27;0.77;;;;;;;;;;4944436;29;20090;-64
2022/09/27 08:21:08;;;;;;;2.33;0.90;;;;;;;;;;4934340;29;20411;-64
2022/09/27 08:23:35;;;;;;;1.25;0.80;;;;;;;;;;4941941;29;20131;-64
2022/09/27 08:26:02;;;;;;;2.50;0.75;;;;;;;;;;4935986;29;20051;-64
2022/09/27 08:28:30;;;;;;;3.22;0.80;;;;;;;;;;4941326;29;20547;-64
2022/09/27 08:30:59;;;;;;;2.47;1.05;;;;;;;;;;4943550;28;20411;-64
2022/09/27 08:33:26;;;;;;;1.17;0.85;;;;;;;;;;4945166;29;20075;-64
2022/09/27 08:35:58;;;;;;;2.67;0.90;;;;;;;;;;4941152;29;20076;-64
2022/09/27 08:38:25;;;;;;;2.80;0.95;;;;;;;;;;4946128;28;20106;-64
2022/09/27 08:40:56;;;;;;;0.50;0.50;;;;;;;;;;4946989;29;20109;-63
2022/09/27 08:43:29;;;;;;;2.08;0.70;;;;;;;;;;4911203;29;20143;-64
2022/09/27 08:46:29;;;;;;;3.20;0.63;;;;;;;;;;4951012;29;20048;-63
2022/09/27 08:49:12;;;;;;;1.55;0.47;;;;;;;;;;4935218;29;20106;-64
2022/09/27 08:51:39;;;;;;;0.82;0.52;;;;;;;;;;4937086;28;20044;-65
2022/09/27 08:54:11;;;;;;;0.95;0.40;;;;;;;;;;4950932;29;20055;-64
2022/09/27 08:56:38;;;;;;;0.60;0.55;;;;;;;;;;4953097;28;20082;-64
2022/09/27 08:59:11;;;;;;;1.63;0.63;;;;;;;;;;4937161;29;20059;-64
2022/09/27 09:01:37;;;;;;;0.50;0.50;;;;;;;;;;4940896;28;20103;-64
2022/09/27 09:04:04;;;;;;;1.58;0.75;;;;;;;;;;4939904;29;20590;-64
2022/09/27 09:06:42;;;;;;;1.85;0.60;;;;;;;;;;4939005;28;20044;-64
2022/09/27 09:09:17;;;;;;;1.80;0.85;;;;;;;;;;4930329;29;20055;-65
2022/09/27 09:15:00;;;;;;;1.25;0.75;;;;;;;;;;4940920;29;20515;-64
2022/09/27 09:17:48;;;;;;;3.95;1.33;;;;;;;;;;4942911;29;20142;-64
2022/09/27 09:20:25;;;;;;;1.17;0.70;;;;;;;;;;4938989;29;20083;-65
2022/09/27 09:23:30;;;;;;;4.63;1.10;;;;;;;;;;4961115;28;20063;-65
2022/09/27 09:26:23;;;;;;;2.25;1.05;;;;;;;;;;4940225;28;20048;-64
2022/09/27 09:29:05;;;;;;;4.80;1.70;;;;;;;;;;4943707;29;20082;-64
2022/09/27 09:31:57;;;;;;;2.08;1.60;;;;;;;;;;4938565;29;20048;-64
2022/09/27 09:34:31;;;;;;;1.90;1.15;;;;;;;;;;4946828;28;20090;-65
2022/09/27 09:37:14;;;;;;;2.53;0.98;;;;;;;;;;4930332;29;20141;-64
2022/09/27 09:39:47;;;;;;;4.35;0.95;;;;;;;;;;4921824;29;20082;-70
2022/09/27 09:42:15;;;;;;;0.77;0.60;;;;;;;;;;4925821;29;20047;-69
2022/09/27 09:44:47;;;;;;;1.63;0.60;;;;;;;;;;4950068;28;20054;-71
2022/09/27 09:47:38;;;;;;;1.85;1.05;;;;;;;;;;4938137;28;20059;-65
2022/09/27 09:50:29;;;;;;;1.60;0.80;;;;;;;;;;4934490;29;20575;-74
2022/09/27 09:53:27;;;;;;;2.22;0.80;;;;;;;;;;4964849;28;20463;-73
2022/09/27 09:55:58;;;;;;;4.28;0.85;;;;;;;;;;4947271;29;20055;-70
2022/09/27 09:58:32;;;;;;;0.95;0.80;;;;;;;;;;4947512;29;20094;-67
2022/09/27 10:01:07;;;;;;;6.45;1.05;;;;;;;;;;4927131;29;20051;-65
2022/09/27 10:03:34;;;;;;;5.18;0.80;;;;;;;;;;4950871;29;20054;-68
2022/09/27 10:06:01;;;;;;;2.85;1.10;;;;;;;;;;4939772;28;20066;-67
2022/09/27 10:08:28;;;;;;;2.35;0.98;;;;;;;;;;4947514;28;20047;-66
2022/09/27 10:10:54;;;;;;;5.32;1.00;;;;;;;;;;4937228;29;20085;-69
2022/09/27 10:13:21;;;;;;;3.60;1.40;;;;;;;;;;4945953;29;20086;-70
2022/09/27 10:16:11;;;;;;;3.38;1.10;;;;;;;;;;4946883;28;20447;-66
2022/09/27 10:18:40;;;;;;;3.20;1.33;;;;;;;;;;4921381;29;20078;-68
2022/09/27 10:21:18;;;;;;;4.00;1.02;;;;;;;;;;4943537;28;20048;-67
2022/09/27 10:24:07;;;;;;;2.42;1.10;;;;;;;;;;4940875;28;20118;-69
2022/09/27 10:26:39;;;;;;;1.65;1.00;;;;;;;;;;4948730;29;20776;-66
2022/09/27 10:29:22;;;;;;;1.83;0.93;;;;;;;;;;4925080;29;20047;-67
2022/09/27 10:31:49;;;;;;;4.65;1.25;;;;;;;;;;4940207;29;20515;-67
2022/09/27 10:34:25;;;;;;;2.85;0.95;;;;;;;;;;4939781;29;20052;-65
2022/09/27 10:37:10;;;;;;;2.38;0.80;;;;;;;;;;4948339;29;20106;-64
2022/09/27 10:39:38;;;;;;;3.55;1.05;;;;;;;;;;4941364;29;20091;-65
2022/09/27 10:42:33;;;;;;;3.30;1.48;;;;;;;;;;4948038;29;20047;-64
2022/09/27 10:45:19;;;;;;;2.50;0.70;;;;;;;;;;4941624;29;20056;-64
2022/09/27 10:47:46;;;;;;;6.30;2.88;;;;;;;;;;4949055;29;20058;-66
2022/09/27 10:50:20;;;;;;;2.22;0.88;;;;;;;;;;4948138;29;20104;-64
2022/09/27 10:53:15;;;;;;;4.18;1.75;;;;;;;;;;4936490;28;20150;-63
2022/09/27 10:55:41;;;;;;;2.42;1.50;;;;;;;;;;4938712;28;20634;-66
2022/09/27 10:58:36;;;;;;;2.38;1.00;;;;;;;;;;4944252;29;20056;-65
2022/09/27 11:01:07;;;;;;;1.25;0.80;;;;;;;;;;4938658;29;20058;-64
2022/09/27 11:03:44;;;;;;;1.15;0.90;;;;;;;;;;4933684;28;20051;-65
2022/09/27 11:06:23;;;;;;;3.53;1.20;;;;;;;;;;4946568;29;20104;-64
2022/09/27 11:08:51;;;;;;;5.18;1.00;;;;;;;;;;4935498;29;20055;-64
2022/09/27 11:11:20;;;;;;;4.30;1.10;;;;;;;;;;4918115;29;20119;-65
2022/09/27 11:14:16;;;;;;;2.25;0.73;;;;;;;;;;4935461;29;20094;-66
2022/09/27 11:16:50;;;;;;;2.80;0.90;;;;;;;;;;4937520;29;20059;-66
2022/09/27 11:19:35;;;;;;;1.13;0.88;;;;;;;;;;4933274;28;20058;-67
2022/09/27 11:22:04;;;;;;;3.17;1.15;;;;;;;;;;4938277;29;20484;-69
2022/09/27 11:24:44;;;;;;;4.97;1.08;;;;;;;;;;4938997;29;20047;-68
2022/09/27 11:27:14;;;;;;;2.95;0.93;;;;;;;;;;4949235;29;20130;-65
2022/09/27 11:29:49;;;;;;;5.07;1.08;;;;;;;;;;4942328;28;20086;-69
2022/09/27 11:32:27;;;;;;;2.90;0.80;;;;;;;;;;4941602;29;20047;-69
2022/09/27 11:35:12;;;;;;;1.58;0.50;;;;;;;;;;4938279;28;20089;-69
2022/09/27 11:38:12;;;;;;;1.75;0.70;;;;;;;;;;4941160;29;20122;-70
2022/09/27 11:41:21;;;;;;;2.78;0.75;;;;;;;;;;4934067;28;20146;-69
2022/09/27 11:43:54;;;;;;;2.47;0.65;;;;;;;;;;4946511;29;20051;-72
2022/09/27 11:46:28;;;;;;;3.60;0.70;;;;;;;;;;4951983;29;20047;-72
2022/09/27 11:49:48;;;;;;;1.70;0.80;;;;;;;;;;4943969;29;20051;-68
2022/09/27 11:52:42;;;;;;;3.45;0.60;;;;;;;;;;4940459;29;20051;-69
2022/09/27 11:55:17;;;;;;;2.35;1.30;;;;;;;;;;4936604;29;20070;-68
2022/09/27 11:57:52;;;;;;;0.82;0.80;;;;;;;;;;4950151;28;20044;-71
2022/09/27 12:00:23;;;;;;;1.88;1.25;;;;;;;;;;4951315;29;20055;-68
2022/09/27 12:02:50;;;;;;;1.15;0.70;;;;;;;;;;4951509;29;20103;-68
2022/09/27 12:05:23;;;;;;;1.40;0.60;;;;;;;;;;4947601;28;20061;-68
2022/09/27 12:08:17;;;;;;;2.40;0.60;;;;;;;;;;4951209;28;20055;-67
2022/09/27 12:10:49;;;;;;;1.75;0.60;;;;;;;;;;4947386;29;20078;-65
2022/09/27 12:13:23;;;;;;;2.00;0.90;;;;;;;;;;4935014;29;20053;-67
2022/09/27 12:15:50;;;;;;;1.98;1.00;;;;;;;;;;4939392;29;20048;-66
2022/09/27 12:18:25;;;;;;;1.63;0.70;;;;;;;;;;4935896;29;20057;-66
2022/09/27 12:20:52;;;;;;;0.80;0.60;;;;;;;;;;4929607;29;20579;-65
2022/09/27 12:23:50;;;;;;;2.85;1.25;;;;;;;;;;4945581;29;20483;-65
2022/09/27 12:26:28;;;;;;;2.78;0.80;;;;;;;;;;4945190;29;20047;-65
2022/09/27 12:29:19;;;;;;;2.42;1.02;;;;;;;;;;4930657;29;20134;-70
2022/09/27 12:31:51;;;;;;;2.00;0.70;;;;;;;;;;4940961;28;20048;-69
2022/09/27 12:34:34;;;;;;;0.87;0.60;;;;;;;;;;4926166;29;20511;-71
2022/09/27 12:37:15;;;;;;;2.67;0.50;;;;;;;;;;4950876;29;20110;-69
2022/09/27 12:40:00;;;;;;;3.42;0.70;;;;;;;;;;4935767;29;20063;-67
2022/09/27 12:42:41;;;;;;;1.80;0.50;;;;;;;;;;4923219;29;20083;-67
2022/09/27 12:45:16;;;;;;;0.40;0.40;;;;;;;;;;4949265;28;20558;-68
2022/09/27 12:48:12;;;;;;;0.68;0.50;;;;;;;;;;4940509;29;20057;-69
2022/09/27 12:50:43;;;;;;;0.55;0.40;;;;;;;;;;4942388;29;20110;-68
2022/09/27 12:53:22;;;;;;;0.90;0.52;;;;;;;;;;4939011;29;20107;-69
2022/09/27 12:56:16;;;;;;;1.80;0.52;;;;;;;;;;4938834;28;20091;-68
2022/09/27 12:59:02;;;;;;;0.77;0.30;;;;;;;;;;4944228;29;20047;-66
2022/09/27 13:01:43;;;;;;;2.30;0.75;;;;;;;;;;4946498;29;20051;-64
2022/09/27 13:04:21;;;;;;;1.17;0.60;;;;;;;;;;4946360;29;20055;-68
2022/09/27 13:07:22;;;;;;;1.02;0.50;;;;;;;;;;4944586;28;20055;-66
2022/09/27 13:10:17;;;;;;;2.15;0.80;;;;;;;;;;4930023;28;20048;-67
2022/09/27 13:12:50;;;;;;;0.98;0.47;;;;;;;;;;4947011;29;20090;-66
2022/09/27 13:15:31;;;;;;;3.25;0.60;;;;;;;;;;4939305;28;20059;-70
2022/09/27 13:18:18;;;;;;;1.52;0.70;;;;;;;;;;4975047;28;20566;-70
2022/09/27 13:20:47;;;;;;;2.03;0.60;;;;;;;;;;4972217;28;20575;-67
2022/09/27 13:23:17;;;;;;;3.10;0.88;;;;;;;;;;4958822;28;20054;-71
2022/09/27 13:25:50;;;;;;;0.70;0.68;;;;;;;;;;4965835;28;20047;-68
2022/09/27 13:28:32;;;;;;;1.58;0.95;;;;;;;;;;4962651;28;20051;-70
2022/09/27 13:30:59;;;;;;;1.00;0.80;;;;;;;;;;4956769;28;20086;-72
2022/09/27 13:33:40;;;;;;;1.48;0.70;;;;;;;;;;4971931;28;20043;-67
2022/09/27 13:36:29;;;;;;;0.98;0.70;;;;;;;;;;4973558;28;20080;-69
2022/09/27 13:39:04;;;;;;;0.70;0.70;;;;;;;;;;4956752;28;20043;-66
2022/09/27 13:41:43;;;;;;;2.30;0.68;;;;;;;;;;4966496;28;20054;-67
2022/09/27 13:44:29;;;;;;;1.33;0.93;;;;;;;;;;4962801;28;20051;-68
2022/09/27 13:46:58;;;;;;;0.90;0.60;;;;;;;;;;4963323;28;20455;-65
2022/09/27 13:49:37;;;;;;;4.55;1.20;;;;;;;;;;4962483;28;20117;-66
2022/09/27 13:52:23;;;;;;;0.93;0.77;;;;;;;;;;4969419;28;20557;-67
2022/09/27 13:54:56;;;;;;;2.10;0.80;;;;;;;;;;4963010;28;20047;-67
2022/09/27 13:57:41;;;;;;;;;;;;;;;;;;4968248;28;20083;-71
2022/09/27 14:00:25;;;;;;;2.70;1.30;;;;;;;;;;4958216;28;19985;-71
2022/09/27 14:03:06;;;;;;;1.88;1.10;;;;;;;;;;4972430;28;20137;-70
2022/09/27 14:06:00;;;;;;;1.00;0.65;;;;;;;;;;4947307;28;20545;-72
2022/09/27 14:09:09;;;;;;;1.52;0.80;;;;;;;;;;4965995;28;20058;-66
2022/09/27 14:11:38;;;;;;;2.30;0.85;;;;;;;;;;4916556;29;20054;-69
2022/09/27 14:14:05;;;;;;;3.60;0.75;;;;;;;;;;4939201;28;20110;-70
2022/09/27 14:16:34;;;;;;;1.58;0.65;;;;;;;;;;4978079;28;20061;-73
2022/09/27 14:19:01;;;;;;;4.38;1.10;;;;;;;;;;4976713;23;20070;-68
2022/09/27 14:21:38;;;;;;;2.72;1.30;;;;;;;;;;4954614;28;20134;-68
2022/09/27 14:24:26;;;;;;;2.75;1.17;;;;;;;;;;4956105;28;20043;-68
2022/09/27 14:27:48;;;;;;;1.38;1.20;;;;;;;;;;4962290;28;20047;-68
2022/09/27 14:30:18;;;;;;;2.50;1.50;;;;;;;;;;4958317;28;20055;-74
2022/09/27 14:32:49;;;;;;;5.88;2.08;;;;;;;;;;4960901;28;20078;-73
2022/09/27 14:40:51;;;;;;;2.90;1.10;;;;;;;;;;5202784;23;20050;-73
2022/09/27 14:43:19;;;;;;;2.90;1.08;;;;;;;;;;4964395;28;20488;-71
2022/09/27 14:45:51;;;;;;;1.85;0.90;;;;;;;;;;4964417;28;20046;-72
2022/09/27 14:48:25;;;;;;;1.98;1.48;;;;;;;;;;4962432;28;20069;-71
2022/09/27 14:51:03;;;;;;;3.67;2.00;;;;;;;;;;4955609;28;20048;-70
2022/09/27 14:53:40;;;;;;;3.28;2.00;;;;;;;;;;4959079;28;20130;-70
2022/09/27 14:56:10;;;;;;;3.22;1.63;;;;;;;;;;4941239;28;20484;-69
2022/09/27 14:58:37;;;;;;;3.28;2.00;;;;;;;;;;4927630;28;20054;-67
2022/09/27 15:01:19;;;;;;;2.35;1.70;;;;;;;;;;4958891;28;20086;-69
2022/09/27 15:03:47;;;;;;;2.70;1.70;;;;;;;;;;4950298;28;20059;-66
2022/09/27 15:06:18;;;;;;;3.22;2.30;;;;;;;;;;4941162;28;20051;-68
2022/09/27 15:08:48;;;;;;;2.03;1.17;;;;;;;;;;4966320;28;20383;-70
2022/09/27 15:11:16;;;;;;;1.35;1.25;;;;;;;;;;4955483;28;20051;-74
2022/09/27 15:13:44;;;;;;;3.45;2.20;;;;;;;;;;4967258;28;20046;-74
2022/09/27 15:16:18;;;;;;;2.65;0.98;;;;;;;;;;4940045;28;20054;-70
2022/09/27 15:18:47;;;;;;;1.63;1.17;;;;;;;;;;4942391;28;20051;-73
2022/09/27 15:21:26;;;;;;;1.50;1.15;;;;;;;;;;4956435;28;20501;-71
2022/09/27 15:23:54;;;;;;;1.55;1.42;;;;;;;;;;4955366;28;20051;-68
2022/09/27 15:26:26;;;;;;;1.50;1.17;;;;;;;;;;4924644;28;20514;-69
2022/09/27 15:28:52;;;;;;;1.92;1.27;;;;;;;;;;4949831;28;20047;-69
2022/09/27 15:31:35;;;;;;;1.48;1.33;;;;;;;;;;4939779;28;20509;-70
2022/09/27 15:34:04;;;;;;;2.03;1.30;;;;;;;;;;4939366;28;20043;-69